createdAt,value
2022-10-02T00:01:56.521Z,11.74
2022-10-02T00:04:37.160Z,11.73
2022-10-02T00:07:09.747Z,11.73
2022-10-02T00:09:51.129Z,11.74
2022-10-02T00:12:21.843Z,11.73
2022-10-02T00:14:54.332Z,11.72
2022-10-02T00:17:29.472Z,11.72
2022-10-02T00:19:56.972Z,11.71
2022-10-02T00:22:30.211Z,11.71
2022-10-02T00:25:01.469Z,11.70
2022-10-02T00:28:24.877Z,11.72
2022-10-02T00:30:51.736Z,11.69
2022-10-02T00:33:29.531Z,11.70
2022-10-02T00:36:14.861Z,11.71
2022-10-02T00:39:05.910Z,11.70
2022-10-02T00:41:56.796Z,11.69
2022-10-02T00:45:01.355Z,11.70
2022-10-02T00:47:43.065Z,11.69
2022-10-02T00:50:47.108Z,11.68
2022-10-02T00:53:38.296Z,11.64
2022-10-02T00:56:51.947Z,11.64
2022-10-02T00:59:24.493Z,11.62
2022-10-02T01:02:12.478Z,11.61
2022-10-02T01:04:40.530Z,11.62
2022-10-02T01:07:10.755Z,11.63
2022-10-02T01:09:39.141Z,11.62
2022-10-02T01:12:06.969Z,11.63
2022-10-02T01:14:35.585Z,11.62
2022-10-02T01:17:03.557Z,11.60
2022-10-02T01:19:38.703Z,11.60
2022-10-02T01:22:24.772Z,11.59
2022-10-02T01:24:56.316Z,11.58
2022-10-02T01:27:24.493Z,11.55
2022-10-02T01:30:12.120Z,11.57
2022-10-02T01:32:44.004Z,11.57
2022-10-02T01:35:11.178Z,11.56
2022-10-02T01:37:42.920Z,11.57
2022-10-02T01:40:23.741Z,11.57
2022-10-02T01:42:51.312Z,11.57
2022-10-02T01:45:23.659Z,11.54
2022-10-02T01:48:02.480Z,11.55
2022-10-02T01:50:50.649Z,11.54
2022-10-02T01:53:27.391Z,11.54
2022-10-02T01:56:01.281Z,11.53
2022-10-02T01:59:05.217Z,11.53
2022-10-02T02:01:47.493Z,11.55
2022-10-02T02:04:54.869Z,11.55
2022-10-02T02:07:30.665Z,11.55
2022-10-02T02:10:16.594Z,11.57
2022-10-02T02:12:48.873Z,11.55
2022-10-02T02:15:40.916Z,11.56
2022-10-02T02:18:16.761Z,11.58
2022-10-02T02:20:47.323Z,11.59
2022-10-02T02:23:22.401Z,11.57
2022-10-02T02:25:53.244Z,11.56
2022-10-02T02:28:21.821Z,11.56
2022-10-02T02:30:51.950Z,11.57
2022-10-02T02:33:25.194Z,11.55
2022-10-02T02:35:55.848Z,11.58
2022-10-02T02:38:29.293Z,11.60
2022-10-02T02:41:02.862Z,11.60
2022-10-02T02:43:35.532Z,11.56
2022-10-02T02:46:17.919Z,11.56
2022-10-02T02:49:05.200Z,11.55
2022-10-02T02:51:37.923Z,11.56
2022-10-02T02:54:24.364Z,11.56
2022-10-02T02:56:53.103Z,11.54
2022-10-02T02:59:22.119Z,11.54
2022-10-02T03:01:49.189Z,11.54
2022-10-02T03:04:15.980Z,11.55
2022-10-02T03:06:49.382Z,11.55
2022-10-02T03:09:22.360Z,11.56
2022-10-02T03:12:01.218Z,11.54
2022-10-02T03:14:33.955Z,11.57
2022-10-02T03:17:09.671Z,11.58
2022-10-02T03:19:55.310Z,11.55
2022-10-02T03:22:36.404Z,11.51
2022-10-02T03:25:21.602Z,11.49
2022-10-02T03:27:59.505Z,11.52
2022-10-02T03:30:27.598Z,11.51
2022-10-02T03:32:56.401Z,11.49
2022-10-02T03:35:25.185Z,11.49
2022-10-02T03:37:56.253Z,11.48
2022-10-02T03:40:24.919Z,11.49
2022-10-02T03:42:53.782Z,11.47
2022-10-02T03:45:46.211Z,11.46
2022-10-02T03:48:07.608Z,11.45
2022-10-02T03:50:36.559Z,11.48
2022-10-02T03:53:12.941Z,11.47
2022-10-02T03:55:43.385Z,11.45
2022-10-02T03:58:16.337Z,11.45
2022-10-02T04:00:52.369Z,11.46
2022-10-02T04:03:31.433Z,11.46
2022-10-02T04:06:06.749Z,11.43
2022-10-02T04:08:39.129Z,11.45
2022-10-02T04:11:16.908Z,11.45
2022-10-02T04:14:06.640Z,11.44
2022-10-02T04:17:02.208Z,11.43
2022-10-02T04:19:39.004Z,11.43
2022-10-02T04:22:15.961Z,11.43
2022-10-02T04:24:47.673Z,11.43
2022-10-02T04:27:29.371Z,11.41
2022-10-02T04:30:00.480Z,11.40
2022-10-02T04:32:34.271Z,11.43
2022-10-02T04:35:02.884Z,11.42
2022-10-02T04:37:40.695Z,11.43
2022-10-02T04:40:17.161Z,11.41
2022-10-02T04:42:46.868Z,11.38
2022-10-02T04:45:20.946Z,11.37
2022-10-02T04:47:56.624Z,11.39
2022-10-02T04:50:59.054Z,11.37
2022-10-02T04:53:38.317Z,11.38
2022-10-02T04:56:26.024Z,11.38
2022-10-02T04:59:28.599Z,11.39
2022-10-02T05:02:13.531Z,11.38
2022-10-02T05:05:02.856Z,11.39
2022-10-02T05:07:49.175Z,11.37
2022-10-02T05:10:31.143Z,11.36
2022-10-02T05:13:06.901Z,11.34
2022-10-02T05:16:04.724Z,11.33
2022-10-02T05:18:50.505Z,11.34
2022-10-02T05:21:52.406Z,11.30
2022-10-02T05:24:49.433Z,11.29
2022-10-02T05:27:19.578Z,11.30
2022-10-02T05:30:08.573Z,11.30
2022-10-02T05:32:53.540Z,11.30
2022-10-02T05:35:47.694Z,11.30
2022-10-02T05:38:36.325Z,11.29
2022-10-02T05:41:34.561Z,11.25
2022-10-02T05:44:11.399Z,11.27
2022-10-02T05:46:51.704Z,11.27
2022-10-02T05:49:24.439Z,11.27
2022-10-02T05:52:06.747Z,11.26
2022-10-02T05:55:11.132Z,11.27
2022-10-02T05:58:03.474Z,11.27
2022-10-02T06:00:35.037Z,11.25
2022-10-02T06:03:08.256Z,11.23
2022-10-02T06:05:44.538Z,11.24
2022-10-02T06:08:16.043Z,11.25
2022-10-02T06:10:50.649Z,11.28
2022-10-02T06:13:36.651Z,11.24
2022-10-02T06:16:29.411Z,11.25
2022-10-02T06:19:04.288Z,11.24
2022-10-02T06:21:38.248Z,11.26
2022-10-02T06:24:12.806Z,11.23
2022-10-02T06:26:49.481Z,11.25
2022-10-02T06:29:27.331Z,11.22
2022-10-02T06:32:19.418Z,11.22
2022-10-02T06:34:48.126Z,11.22
2022-10-02T06:37:33.744Z,11.20
2022-10-02T06:40:16.826Z,11.18
2022-10-02T06:42:43.611Z,11.19
2022-10-02T06:45:29.049Z,11.24
2022-10-02T06:48:12.985Z,11.24
2022-10-02T06:51:17.197Z,11.20
2022-10-02T06:53:46.897Z,11.20
2022-10-02T06:56:31.848Z,11.22
2022-10-02T06:59:30.164Z,11.17
2022-10-02T07:02:17.485Z,11.15
2022-10-02T07:05:02.935Z,11.18
2022-10-02T07:07:59.495Z,11.16
2022-10-02T07:10:51.480Z,11.23
2022-10-02T07:13:37.810Z,11.18
2022-10-02T07:16:29.900Z,11.13
2022-10-02T07:19:27.428Z,11.14
2022-10-02T07:22:43.964Z,11.14
2022-10-02T07:25:23.256Z,11.13
2022-10-02T07:27:50.447Z,11.16
2022-10-02T07:30:18.599Z,11.15
2022-10-02T07:32:55.169Z,11.18
2022-10-02T07:35:35.132Z,11.17
2022-10-02T07:38:43.372Z,11.22
2022-10-02T07:41:52.163Z,11.20
2022-10-02T07:44:51.366Z,11.25
2022-10-02T07:47:21.628Z,11.31
2022-10-02T07:49:51.422Z,11.31
2022-10-02T07:52:40.036Z,11.31
2022-10-02T07:55:26.176Z,11.32
2022-10-02T07:58:17.142Z,11.27
2022-10-02T08:00:50.657Z,11.26
2022-10-02T08:03:23.332Z,11.27
2022-10-02T08:05:55.934Z,11.30
2022-10-02T08:08:41.414Z,11.31
2022-10-02T08:11:08.295Z,11.32
2022-10-02T08:13:46.492Z,11.33
2022-10-02T08:16:16.628Z,11.39
2022-10-02T08:18:49.102Z,11.42
2022-10-02T08:21:22.801Z,11.41
2022-10-02T08:23:58.793Z,11.40
2022-10-02T08:26:54.236Z,11.40
2022-10-02T08:29:28.457Z,11.43
2022-10-02T08:31:56.604Z,11.44
2022-10-02T08:34:25.176Z,11.41
2022-10-02T08:37:15.879Z,11.44
2022-10-02T08:40:04.020Z,11.45
2022-10-02T08:42:56.066Z,11.46
2022-10-02T08:45:47.836Z,11.46
2022-10-02T08:48:17.451Z,11.47
2022-10-02T08:51:02.877Z,11.49
2022-10-02T08:53:48.125Z,11.51
2022-10-02T08:56:20.693Z,11.51
2022-10-02T08:59:12.409Z,11.51
2022-10-02T09:02:00.356Z,11.51
2022-10-02T09:05:02.274Z,11.51
2022-10-02T09:07:53.661Z,11.51
2022-10-02T09:10:48.384Z,11.52
2022-10-02T09:13:46.500Z,11.55
2022-10-02T09:16:39.658Z,11.57
2022-10-02T09:19:31.389Z,11.57
2022-10-02T09:22:11.528Z,11.59
2022-10-02T09:24:53.284Z,11.59
2022-10-02T09:27:35.088Z,11.58
2022-10-02T09:30:36.040Z,11.62
2022-10-02T09:33:29.030Z,11.66
2022-10-02T09:36:25.226Z,11.62
2022-10-02T09:38:55.744Z,11.62
2022-10-02T09:41:50.185Z,11.64
2022-10-02T09:44:35.413Z,11.67
2022-10-02T09:47:19.292Z,11.67
2022-10-02T09:50:17.434Z,11.68
2022-10-02T09:53:02.037Z,11.72
2022-10-02T09:55:35.385Z,11.74
2022-10-02T09:58:40.849Z,11.76
2022-10-02T10:01:54.574Z,11.77
2022-10-02T10:05:07.168Z,11.81
2022-10-02T10:07:49.313Z,11.81
2022-10-02T10:10:34.982Z,11.84
2022-10-02T10:13:18.116Z,11.86
2022-10-02T10:16:19.301Z,11.85
2022-10-02T10:19:42.280Z,11.88
2022-10-02T10:22:32.240Z,11.89
2022-10-02T10:24:59.182Z,11.88
2022-10-02T10:27:50.239Z,11.92
2022-10-02T10:30:22.120Z,11.93
2022-10-02T10:33:24.510Z,11.94
2022-10-02T10:36:46.611Z,11.94
2022-10-02T10:39:50.436Z,11.96
2022-10-02T10:43:02.946Z,11.96
2022-10-02T10:45:50.723Z,11.98
2022-10-02T10:48:49.516Z,11.98
2022-10-02T10:51:31.584Z,12.00
2022-10-02T10:54:25.873Z,12.02
2022-10-02T10:57:29.411Z,12.03
2022-10-02T11:00:16.548Z,12.03
2022-10-02T11:03:09.842Z,12.05
2022-10-02T11:06:03.856Z,12.06
2022-10-02T11:09:08.041Z,12.08
2022-10-02T11:11:52.291Z,12.10
2022-10-02T11:14:24.903Z,12.14
2022-10-02T11:17:10.838Z,12.19
2022-10-02T11:19:57.077Z,12.21
2022-10-02T11:22:33.579Z,12.21
2022-10-02T11:25:21.855Z,12.23
2022-10-02T11:28:04.004Z,12.25
2022-10-02T11:30:55.084Z,12.29
2022-10-02T11:34:06.383Z,12.30
2022-10-02T11:37:12.217Z,12.32
2022-10-02T11:39:59.359Z,12.32
2022-10-02T11:42:50.416Z,12.33
2022-10-02T11:45:20.401Z,12.36
2022-10-02T11:48:28.816Z,12.41
2022-10-02T11:51:14.534Z,12.37
2022-10-02T11:54:03.344Z,12.45
2022-10-02T11:57:01.772Z,12.46
2022-10-02T11:59:29.775Z,12.49
2022-10-02T12:02:05.920Z,12.49
2022-10-02T12:05:04.485Z,12.50
2022-10-02T12:07:48.124Z,12.52
2022-10-02T12:10:31.403Z,12.51
2022-10-02T12:13:16.417Z,12.50
2022-10-02T12:15:49.065Z,12.51
2022-10-02T12:18:22.243Z,12.50
2022-10-02T12:21:28.659Z,12.49
2022-10-02T12:24:38.468Z,12.46
2022-10-02T12:27:28.421Z,12.49
2022-10-02T12:30:26.878Z,12.48
2022-10-02T12:33:03.226Z,12.46
2022-10-02T12:35:39.698Z,12.45
2022-10-02T12:38:34.485Z,12.44
2022-10-02T12:41:35.689Z,12.45
2022-10-02T12:44:17.129Z,12.44
2022-10-02T12:46:57.498Z,12.45
2022-10-02T12:49:51.903Z,12.46
2022-10-02T12:52:51.811Z,12.46
2022-10-02T12:55:37.537Z,12.48
2022-10-02T12:58:34.360Z,12.47
2022-10-02T13:01:07.224Z,12.48
2022-10-02T13:04:16.566Z,12.47
2022-10-02T13:06:49.532Z,12.50
2022-10-02T13:09:43.379Z,12.53
2022-10-02T13:12:16.054Z,12.57
2022-10-02T13:15:02.870Z,12.58
2022-10-02T13:17:59.264Z,12.61
2022-10-02T13:20:42.866Z,12.61
2022-10-02T13:23:33.947Z,12.64
2022-10-02T13:26:33.243Z,12.66
2022-10-02T13:29:03.054Z,12.71
2022-10-02T13:31:55.106Z,12.73
2022-10-02T13:34:46.450Z,12.75
2022-10-02T13:37:19.496Z,12.76
2022-10-02T13:39:59.470Z,12.78
2022-10-02T13:42:42.417Z,12.81
2022-10-02T13:45:15.412Z,12.85
2022-10-02T13:47:46.670Z,12.88
2022-10-02T13:50:31.617Z,12.88
2022-10-02T13:53:32.353Z,12.86
2022-10-02T13:56:22.237Z,12.87
2022-10-02T13:59:36.581Z,12.89
2022-10-02T14:02:09.529Z,12.91
2022-10-02T14:05:01.150Z,12.92
2022-10-02T14:07:28.104Z,12.94
2022-10-02T14:10:10.878Z,12.93
2022-10-02T14:12:57.398Z,12.93
2022-10-02T14:15:54.062Z,12.97
2022-10-02T14:19:05.789Z,12.97
2022-10-02T14:21:42.841Z,12.97
2022-10-02T14:24:49.896Z,12.99
2022-10-02T14:27:31.915Z,13.02
2022-10-02T14:30:01.774Z,13.01
2022-10-02T14:32:57.981Z,13.02
2022-10-02T14:35:59.096Z,13.02
2022-10-02T14:38:25.922Z,13.03
2022-10-02T14:40:55.732Z,13.01
2022-10-02T14:43:33.509Z,13.04
2022-10-02T14:46:26.164Z,13.04
2022-10-02T14:49:22.171Z,13.04
2022-10-02T14:52:08.054Z,13.05
2022-10-02T14:55:00.517Z,13.04
2022-10-02T14:57:45.512Z,13.04
2022-10-02T15:00:22.263Z,13.06
2022-10-02T15:03:15.536Z,13.06
2022-10-02T15:06:23.602Z,13.05
2022-10-02T15:08:56.526Z,13.05
2022-10-02T15:11:35.808Z,13.06
2022-10-02T15:14:15.939Z,13.07
2022-10-02T15:17:19.702Z,13.07
2022-10-02T15:20:04.128Z,13.08
2022-10-02T15:22:39.397Z,13.06
2022-10-02T15:25:18.344Z,13.08
2022-10-02T15:28:24.163Z,13.10
2022-10-02T15:31:05.317Z,13.11
2022-10-02T15:33:40.584Z,13.11
2022-10-02T15:36:23.913Z,13.11
2022-10-02T15:39:13.983Z,13.12
2022-10-02T15:41:47.285Z,13.12
2022-10-02T15:44:32.359Z,13.14
2022-10-02T15:47:20.826Z,13.15
2022-10-02T15:50:02.945Z,13.15
2022-10-02T15:52:48.528Z,13.15
2022-10-02T15:55:31.687Z,13.17
2022-10-02T15:58:35.591Z,13.15
2022-10-02T16:01:27.375Z,13.16
2022-10-02T16:04:02.209Z,13.15
2022-10-02T16:07:02.405Z,13.12
2022-10-02T16:09:57.330Z,13.11
2022-10-02T16:12:24.245Z,13.11
2022-10-02T16:14:59.253Z,13.10
2022-10-02T16:17:48.356Z,13.10
2022-10-02T16:20:44.419Z,13.10
2022-10-02T16:23:39.669Z,13.08
2022-10-02T16:26:25.047Z,13.08
2022-10-02T16:29:09.943Z,13.07
2022-10-02T16:31:39.629Z,13.07
2022-10-02T16:34:33.359Z,13.06
2022-10-02T16:37:09.623Z,13.06
2022-10-02T16:39:55.228Z,13.07
2022-10-02T16:42:48.185Z,13.06
2022-10-02T16:45:27.633Z,13.07
2022-10-02T16:48:05.720Z,13.05
2022-10-02T16:50:47.604Z,13.06
2022-10-02T16:53:34.678Z,13.05
2022-10-02T16:56:19.549Z,13.06
2022-10-02T16:59:01.410Z,13.05
2022-10-02T17:02:12.840Z,13.05
2022-10-02T17:04:47.186Z,13.06
2022-10-02T17:07:36.369Z,13.08
2022-10-02T17:10:20.690Z,13.08
2022-10-02T17:13:07.287Z,13.09
2022-10-02T17:15:44.127Z,13.05
2022-10-02T17:18:25.889Z,13.04
2022-10-02T17:21:03.918Z,13.06
2022-10-02T17:23:42.748Z,13.02
2022-10-02T17:26:26.251Z,12.99
2022-10-02T17:29:00.540Z,12.96
2022-10-02T17:31:53.550Z,12.95
2022-10-02T17:34:26.253Z,12.93
2022-10-02T17:37:26.231Z,12.92
2022-10-02T17:40:28.559Z,12.90
2022-10-02T17:43:20.196Z,12.90
2022-10-02T17:46:20.060Z,12.89
2022-10-02T17:49:02.865Z,12.88
2022-10-02T17:52:22.821Z,12.88
2022-10-02T17:55:42.151Z,12.87
2022-10-02T17:58:42.648Z,12.87
2022-10-02T18:01:25.100Z,12.86
2022-10-02T18:03:54.575Z,12.87
2022-10-02T18:06:25.828Z,12.86
2022-10-02T18:09:07.875Z,12.88
2022-10-02T18:11:37.700Z,12.89
2022-10-02T18:14:20.714Z,12.90
2022-10-02T18:17:06.547Z,12.91
2022-10-02T18:19:42.401Z,12.93
2022-10-02T18:22:30.575Z,12.92
2022-10-02T18:25:35.507Z,12.93
2022-10-02T18:28:38.211Z,12.94
2022-10-02T18:31:33.171Z,12.95
2022-10-02T18:34:14.345Z,12.94
2022-10-02T18:37:13.068Z,12.93
2022-10-02T18:39:41.825Z,12.93
2022-10-02T18:42:29.990Z,12.92
2022-10-02T18:45:16.211Z,12.91
2022-10-02T18:48:19.635Z,12.90
2022-10-02T18:50:46.810Z,12.90
2022-10-02T18:53:41.067Z,12.92
2022-10-02T18:56:09.732Z,12.91
2022-10-02T18:59:12.884Z,12.89
2022-10-02T19:01:58.944Z,12.88
2022-10-02T19:04:40.725Z,12.88
2022-10-02T19:07:13.318Z,12.90
2022-10-02T19:09:42.130Z,12.86
2022-10-02T19:12:25.756Z,12.86
2022-10-02T19:14:55.849Z,12.87
2022-10-02T19:17:26.116Z,12.88
2022-10-02T19:19:54.142Z,12.86
2022-10-02T19:22:23.962Z,12.86
2022-10-02T19:24:55.766Z,12.84
2022-10-02T19:27:31.150Z,12.82
2022-10-02T19:30:01.391Z,12.80
2022-10-02T19:32:33.074Z,12.78
2022-10-02T19:35:18.484Z,12.78
2022-10-02T19:37:49.541Z,12.76
2022-10-02T19:40:21.930Z,12.76
2022-10-02T19:42:52.869Z,12.75
2022-10-02T19:45:25.477Z,12.75
2022-10-02T19:48:00.369Z,12.73
2022-10-02T19:50:39.907Z,12.74
2022-10-02T19:53:15.804Z,12.73
2022-10-02T19:55:44.044Z,12.74
2022-10-02T19:58:17.455Z,12.73
2022-10-02T20:00:44.550Z,12.75
2022-10-02T20:03:24.641Z,12.73
2022-10-02T20:05:57.345Z,12.72
2022-10-02T20:08:30.251Z,12.71
2022-10-02T20:11:09.022Z,12.70
2022-10-02T20:13:48.358Z,12.72
2022-10-02T20:16:41.972Z,12.72
2022-10-02T20:19:50.112Z,12.72
2022-10-02T20:22:42.789Z,12.72
2022-10-02T20:25:15.453Z,12.71
2022-10-02T20:27:50.466Z,12.72
2022-10-02T20:30:22.755Z,12.69
2022-10-02T20:32:59.736Z,12.70
2022-10-02T20:35:34.693Z,12.70
2022-10-02T20:38:32.361Z,12.69
2022-10-02T20:41:03.855Z,12.69
2022-10-02T20:43:45.063Z,12.69
2022-10-02T20:46:33.645Z,12.66
2022-10-02T20:49:15.316Z,12.70
2022-10-02T20:52:14.415Z,12.65
2022-10-02T20:54:54.205Z,12.63
2022-10-02T20:58:06.499Z,12.61
2022-10-02T21:01:04.068Z,12.61
2022-10-02T21:03:50.141Z,12.61
2022-10-02T21:06:36.224Z,12.61
2022-10-02T21:09:06.520Z,12.59
2022-10-02T21:11:50.722Z,12.58
2022-10-02T21:14:35.826Z,12.56
2022-10-02T21:17:30.584Z,12.56
2022-10-02T21:20:33.289Z,12.57
2022-10-02T21:23:12.265Z,12.59
2022-10-02T21:26:19.724Z,12.57
2022-10-02T21:29:05.337Z,12.57
2022-10-02T21:31:41.119Z,12.59
2022-10-02T21:34:32.744Z,12.58
2022-10-02T21:37:44.284Z,12.57
2022-10-02T21:40:35.570Z,12.58
2022-10-02T21:43:37.343Z,12.57
2022-10-02T21:46:16.652Z,12.57
2022-10-02T21:48:46.903Z,12.59
2022-10-02T21:51:17.028Z,12.59
2022-10-02T21:54:09.288Z,12.59
2022-10-02T21:57:07.363Z,12.59
2022-10-02T21:59:54.773Z,12.58
2022-10-02T22:02:24.287Z,12.57
2022-10-02T22:05:11.496Z,12.57
2022-10-02T22:07:38.365Z,12.57
2022-10-02T22:10:28.055Z,12.58
2022-10-02T22:13:18.305Z,12.57
2022-10-02T22:16:07.943Z,12.55
2022-10-02T22:19:10.660Z,12.55
2022-10-02T22:21:46.098Z,12.56
2022-10-02T22:24:40.589Z,12.56
2022-10-02T22:27:26.578Z,12.55
2022-10-02T22:29:55.885Z,12.52
2022-10-02T22:33:10.747Z,12.52
2022-10-02T22:36:09.958Z,12.51
2022-10-02T22:38:49.415Z,12.49
2022-10-02T22:41:16.419Z,12.49
2022-10-02T22:43:51.792Z,12.48
2022-10-02T22:46:48.866Z,12.48
2022-10-02T22:49:25.267Z,12.47
2022-10-02T22:52:16.574Z,12.49
2022-10-02T22:55:14.274Z,12.48
2022-10-02T22:57:52.991Z,12.49
2022-10-02T23:00:23.179Z,12.48
2022-10-02T23:02:56.023Z,12.46
2022-10-02T23:05:33.292Z,12.46
2022-10-02T23:08:26.056Z,12.47
2022-10-02T23:11:02.981Z,12.47
2022-10-02T23:13:36.469Z,12.47
2022-10-02T23:16:26.673Z,12.49
2022-10-02T23:19:12.546Z,12.49
2022-10-02T23:22:21.031Z,12.52
2022-10-02T23:24:57.750Z,12.49
2022-10-02T23:27:38.465Z,12.52
2022-10-02T23:30:11.102Z,12.52
2022-10-02T23:32:46.873Z,12.50
2022-10-02T23:35:44.681Z,12.50
2022-10-02T23:38:28.519Z,12.51
2022-10-02T23:41:25.524Z,12.52
2022-10-02T23:44:14.015Z,12.50
2022-10-02T23:47:20.962Z,12.50
2022-10-02T23:49:52.467Z,12.50
2022-10-02T23:52:41.406Z,12.49
2022-10-02T23:55:40.326Z,12.48
2022-10-02T23:58:13.276Z,12.49
